sensor_id;sensor_type;location;lat;lon;timestamp;P1;durP1;ratioP1;P2;durP2;ratioP2
68718;SDS011;55696;52.138;5.444;2023-07-13T00:01:54;9.65;;;1.80;;
68718;SDS011;55696;52.138;5.444;2023-07-13T00:04:21;8.70;;;2.28;;
68718;SDS011;55696;52.138;5.444;2023-07-13T00:06:51;14.48;;;2.40;;
68718;SDS011;55696;52.138;5.444;2023-07-13T00:09:18;13.70;;;2.10;;
68718;SDS011;55696;52.138;5.444;2023-07-13T00:11:50;11.27;;;1.70;;
68718;SDS011;55696;52.138;5.444;2023-07-13T00:14:18;8.27;;;2.22;;
68718;SDS011;55696;52.138;5.444;2023-07-13T00:16:45;8.52;;;1.83;;
68718;SDS011;55696;52.138;5.444;2023-07-13T00:19:12;11.23;;;2.10;;
68718;SDS011;55696;52.138;5.444;2023-07-13T00:21:40;9.95;;;1.90;;
68718;SDS011;55696;52.138;5.444;2023-07-13T00:24:08;9.30;;;2.20;;
68718;SDS011;55696;52.138;5.444;2023-07-13T00:26:42;12.63;;;1.92;;
68718;SDS011;55696;52.138;5.444;2023-07-13T00:29:12;7.82;;;1.80;;
68718;SDS011;55696;52.138;5.444;2023-07-13T00:31:40;6.97;;;1.58;;
68718;SDS011;55696;52.138;5.444;2023-07-13T00:34:07;6.82;;;1.65;;
68718;SDS011;55696;52.138;5.444;2023-07-13T00:36:34;7.63;;;1.40;;
68718;SDS011;55696;52.138;5.444;2023-07-13T00:39:01;7.68;;;1.80;;
68718;SDS011;55696;52.138;5.444;2023-07-13T00:41:30;9.40;;;2.00;;
68718;SDS011;55696;52.138;5.444;2023-07-13T00:43:57;6.63;;;1.75;;
68718;SDS011;55696;52.138;5.444;2023-07-13T00:46:26;8.60;;;1.70;;
68718;SDS011;55696;52.138;5.444;2023-07-13T00:48:55;10.00;;;2.20;;
68718;SDS011;55696;52.138;5.444;2023-07-13T00:51:43;7.50;;;1.92;;
68718;SDS011;55696;52.138;5.444;2023-07-13T00:54:18;5.90;;;1.92;;
68718;SDS011;55696;52.138;5.444;2023-07-13T00:56:52;8.05;;;2.28;;
68718;SDS011;55696;52.138;5.444;2023-07-13T00:59:22;8.85;;;1.80;;
68718;SDS011;55696;52.138;5.444;2023-07-13T01:01:49;9.43;;;1.77;;
68718;SDS011;55696;52.138;5.444;2023-07-13T01:04:17;10.35;;;1.80;;
68718;SDS011;55696;52.138;5.444;2023-07-13T01:06:45;8.93;;;1.70;;
68718;SDS011;55696;52.138;5.444;2023-07-13T01:09:13;10.45;;;1.80;;
68718;SDS011;55696;52.138;5.444;2023-07-13T01:11:40;9.30;;;1.70;;
68718;SDS011;55696;52.138;5.444;2023-07-13T01:14:08;9.67;;;1.90;;
68718;SDS011;55696;52.138;5.444;2023-07-13T01:16:36;11.20;;;1.63;;
68718;SDS011;55696;52.138;5.444;2023-07-13T01:19:07;7.75;;;1.77;;
68718;SDS011;55696;52.138;5.444;2023-07-13T01:21:51;11.77;;;1.52;;
68718;SDS011;55696;52.138;5.444;2023-07-13T01:24:19;8.95;;;1.88;;
68718;SDS011;55696;52.138;5.444;2023-07-13T01:26:48;5.37;;;1.63;;
68718;SDS011;55696;52.138;5.444;2023-07-13T01:29:15;8.35;;;1.60;;
68718;SDS011;55696;52.138;5.444;2023-07-13T01:31:42;10.82;;;1.90;;
68718;SDS011;55696;52.138;5.444;2023-07-13T01:34:10;7.85;;;1.85;;
68718;SDS011;55696;52.138;5.444;2023-07-13T01:36:37;6.72;;;1.38;;
68718;SDS011;55696;52.138;5.444;2023-07-13T01:39:06;9.20;;;2.20;;
68718;SDS011;55696;52.138;5.444;2023-07-13T01:41:34;6.80;;;1.65;;
68718;SDS011;55696;52.138;5.444;2023-07-13T01:44:01;8.43;;;1.90;;
68718;SDS011;55696;52.138;5.444;2023-07-13T01:46:28;7.05;;;1.90;;
68718;SDS011;55696;52.138;5.444;2023-07-13T01:48:55;8.20;;;1.88;;
68718;SDS011;55696;52.138;5.444;2023-07-13T01:51:22;9.20;;;1.60;;
68718;SDS011;55696;52.138;5.444;2023-07-13T01:53:49;6.78;;;1.67;;
68718;SDS011;55696;52.138;5.444;2023-07-13T01:56:16;5.00;;;1.63;;
68718;SDS011;55696;52.138;5.444;2023-07-13T01:58:44;6.50;;;1.83;;
68718;SDS011;55696;52.138;5.444;2023-07-13T02:01:11;7.30;;;1.58;;
68718;SDS011;55696;52.138;5.444;2023-07-13T02:03:38;7.37;;;1.87;;
68718;SDS011;55696;52.138;5.444;2023-07-13T02:06:05;8.82;;;1.98;;
68718;SDS011;55696;52.138;5.444;2023-07-13T02:08:32;7.72;;;1.70;;
68718;SDS011;55696;52.138;5.444;2023-07-13T02:11:02;10.27;;;1.77;;
68718;SDS011;55696;52.138;5.444;2023-07-13T02:13:30;6.05;;;1.45;;
68718;SDS011;55696;52.138;5.444;2023-07-13T02:15:56;10.87;;;1.73;;
68718;SDS011;55696;52.138;5.444;2023-07-13T02:18:23;7.35;;;2.20;;
68718;SDS011;55696;52.138;5.444;2023-07-13T02:20:50;8.68;;;1.70;;
68718;SDS011;55696;52.138;5.444;2023-07-13T02:23:17;8.68;;;2.17;;
68718;SDS011;55696;52.138;5.444;2023-07-13T02:25:45;7.72;;;1.80;;
68718;SDS011;55696;52.138;5.444;2023-07-13T02:28:14;6.73;;;1.60;;
68718;SDS011;55696;52.138;5.444;2023-07-13T02:30:42;7.03;;;1.55;;
68718;SDS011;55696;52.138;5.444;2023-07-13T02:33:09;8.00;;;1.92;;
68718;SDS011;55696;52.138;5.444;2023-07-13T02:35:36;8.20;;;1.85;;
68718;SDS011;55696;52.138;5.444;2023-07-13T02:38:02;10.18;;;2.00;;
68718;SDS011;55696;52.138;5.444;2023-07-13T02:40:30;11.13;;;1.83;;
68718;SDS011;55696;52.138;5.444;2023-07-13T02:42:59;8.10;;;2.05;;
68718;SDS011;55696;52.138;5.444;2023-07-13T02:45:26;7.93;;;2.00;;
68718;SDS011;55696;52.138;5.444;2023-07-13T02:47:53;8.13;;;2.00;;
68718;SDS011;55696;52.138;5.444;2023-07-13T02:50:21;8.93;;;2.58;;
68718;SDS011;55696;52.138;5.444;2023-07-13T02:52:48;8.80;;;2.43;;
68718;SDS011;55696;52.138;5.444;2023-07-13T02:55:15;6.85;;;2.50;;
68718;SDS011;55696;52.138;5.444;2023-07-13T02:57:42;12.85;;;2.28;;
68718;SDS011;55696;52.138;5.444;2023-07-13T03:00:10;11.77;;;2.20;;
68718;SDS011;55696;52.138;5.444;2023-07-13T03:02:37;12.27;;;1.98;;
68718;SDS011;55696;52.138;5.444;2023-07-13T03:05:04;11.30;;;2.00;;
68718;SDS011;55696;52.138;5.444;2023-07-13T03:07:31;7.28;;;1.95;;
68718;SDS011;55696;52.138;5.444;2023-07-13T03:09:58;10.25;;;2.15;;
68718;SDS011;55696;52.138;5.444;2023-07-13T03:12:36;10.68;;;2.60;;
68718;SDS011;55696;52.138;5.444;2023-07-13T03:15:06;6.38;;;1.83;;
68718;SDS011;55696;52.138;5.444;2023-07-13T03:17:37;8.90;;;2.27;;
68718;SDS011;55696;52.138;5.444;2023-07-13T03:20:04;13.77;;;2.90;;
68718;SDS011;55696;52.138;5.444;2023-07-13T03:22:32;14.18;;;2.50;;
68718;SDS011;55696;52.138;5.444;2023-07-13T03:24:59;11.60;;;2.80;;
68718;SDS011;55696;52.138;5.444;2023-07-13T03:27:27;12.07;;;3.10;;
68718;SDS011;55696;52.138;5.444;2023-07-13T03:29:54;9.13;;;2.50;;
68718;SDS011;55696;52.138;5.444;2023-07-13T03:32:21;9.65;;;2.20;;
68718;SDS011;55696;52.138;5.444;2023-07-13T03:34:48;12.15;;;3.00;;
68718;SDS011;55696;52.138;5.444;2023-07-13T03:37:15;8.02;;;2.50;;
68718;SDS011;55696;52.138;5.444;2023-07-13T03:39:43;9.45;;;2.25;;
68718;SDS011;55696;52.138;5.444;2023-07-13T03:42:10;9.47;;;2.90;;
68718;SDS011;55696;52.138;5.444;2023-07-13T03:44:38;8.68;;;1.85;;
68718;SDS011;55696;52.138;5.444;2023-07-13T03:47:06;9.60;;;2.40;;
68718;SDS011;55696;52.138;5.444;2023-07-13T03:49:35;14.15;;;3.97;;
68718;SDS011;55696;52.138;5.444;2023-07-13T03:52:02;14.35;;;2.70;;
68718;SDS011;55696;52.138;5.444;2023-07-13T03:54:29;9.77;;;2.20;;
68718;SDS011;55696;52.138;5.444;2023-07-13T03:56:56;17.83;;;3.13;;
68718;SDS011;55696;52.138;5.444;2023-07-13T03:59:23;12.88;;;3.20;;
68718;SDS011;55696;52.138;5.444;2023-07-13T04:01:51;11.07;;;2.90;;
68718;SDS011;55696;52.138;5.444;2023-07-13T04:04:17;7.60;;;2.50;;
68718;SDS011;55696;52.138;5.444;2023-07-13T04:06:44;10.33;;;2.60;;
68718;SDS011;55696;52.138;5.444;2023-07-13T04:09:11;12.90;;;2.95;;
68718;SDS011;55696;52.138;5.444;2023-07-13T04:11:38;10.13;;;2.70;;
68718;SDS011;55696;52.138;5.444;2023-07-13T04:14:05;11.98;;;3.00;;
68718;SDS011;55696;52.138;5.444;2023-07-13T04:16:33;7.95;;;2.22;;
68718;SDS011;55696;52.138;5.444;2023-07-13T04:19:00;14.47;;;2.60;;
68718;SDS011;55696;52.138;5.444;2023-07-13T04:21:28;15.05;;;2.60;;
68718;SDS011;55696;52.138;5.444;2023-07-13T04:23:56;14.50;;;2.90;;
68718;SDS011;55696;52.138;5.444;2023-07-13T04:26:23;11.20;;;3.08;;
68718;SDS011;55696;52.138;5.444;2023-07-13T04:28:51;13.15;;;3.10;;
68718;SDS011;55696;52.138;5.444;2023-07-13T04:31:18;10.80;;;2.70;;
68718;SDS011;55696;52.138;5.444;2023-07-13T04:33:46;12.55;;;3.28;;
68718;SDS011;55696;52.138;5.444;2023-07-13T04:36:14;9.32;;;2.95;;
68718;SDS011;55696;52.138;5.444;2023-07-13T04:38:41;8.85;;;3.28;;
68718;SDS011;55696;52.138;5.444;2023-07-13T04:41:09;11.32;;;3.13;;
68718;SDS011;55696;52.138;5.444;2023-07-13T04:43:36;11.83;;;3.37;;
68718;SDS011;55696;52.138;5.444;2023-07-13T04:46:07;11.38;;;2.85;;
68718;SDS011;55696;52.138;5.444;2023-07-13T04:48:36;16.38;;;3.35;;
68718;SDS011;55696;52.138;5.444;2023-07-13T04:51:03;13.55;;;3.92;;
68718;SDS011;55696;52.138;5.444;2023-07-13T04:53:31;8.15;;;2.70;;
68718;SDS011;55696;52.138;5.444;2023-07-13T04:56:01;12.87;;;3.57;;
68718;SDS011;55696;52.138;5.444;2023-07-13T04:58:29;12.77;;;3.30;;
68718;SDS011;55696;52.138;5.444;2023-07-13T05:01:00;16.05;;;3.70;;
68718;SDS011;55696;52.138;5.444;2023-07-13T05:03:31;13.23;;;3.72;;
68718;SDS011;55696;52.138;5.444;2023-07-13T05:05:59;12.90;;;3.20;;
68718;SDS011;55696;52.138;5.444;2023-07-13T05:08:27;10.33;;;2.87;;
68718;SDS011;55696;52.138;5.444;2023-07-13T05:10:54;9.32;;;3.33;;
68718;SDS011;55696;52.138;5.444;2023-07-13T05:13:21;15.27;;;3.53;;
68718;SDS011;55696;52.138;5.444;2023-07-13T05:18:43;12.25;;;3.15;;
68718;SDS011;55696;52.138;5.444;2023-07-13T05:21:10;9.47;;;3.00;;
68718;SDS011;55696;52.138;5.444;2023-07-13T05:23:39;13.40;;;3.40;;
68718;SDS011;55696;52.138;5.444;2023-07-13T05:26:08;17.92;;;4.43;;
68718;SDS011;55696;52.138;5.444;2023-07-13T05:28:35;12.50;;;3.92;;
68718;SDS011;55696;52.138;5.444;2023-07-13T05:31:03;13.85;;;4.25;;
68718;SDS011;55696;52.138;5.444;2023-07-13T05:33:31;13.63;;;3.47;;
68718;SDS011;55696;52.138;5.444;2023-07-13T05:35:57;13.73;;;3.97;;
68718;SDS011;55696;52.138;5.444;2023-07-13T05:38:27;14.93;;;3.58;;
68718;SDS011;55696;52.138;5.444;2023-07-13T05:40:54;21.60;;;5.15;;
68718;SDS011;55696;52.138;5.444;2023-07-13T05:43:22;22.65;;;4.57;;
68718;SDS011;55696;52.138;5.444;2023-07-13T05:45:51;10.10;;;3.90;;
68718;SDS011;55696;52.138;5.444;2023-07-13T05:48:21;17.20;;;4.13;;
68718;SDS011;55696;52.138;5.444;2023-07-13T05:50:48;15.50;;;4.70;;
68718;SDS011;55696;52.138;5.444;2023-07-13T05:53:16;21.17;;;5.68;;
68718;SDS011;55696;52.138;5.444;2023-07-13T05:55:43;15.05;;;5.47;;
68718;SDS011;55696;52.138;5.444;2023-07-13T05:58:13;21.27;;;5.90;;
68718;SDS011;55696;52.138;5.444;2023-07-13T06:00:40;16.85;;;5.80;;
68718;SDS011;55696;52.138;5.444;2023-07-13T06:03:07;15.25;;;5.63;;
68718;SDS011;55696;52.138;5.444;2023-07-13T06:05:35;21.45;;;7.13;;
68718;SDS011;55696;52.138;5.444;2023-07-13T06:08:04;21.45;;;6.20;;
68718;SDS011;55696;52.138;5.444;2023-07-13T06:10:32;16.13;;;6.37;;
68718;SDS011;55696;52.138;5.444;2023-07-13T06:12:59;14.63;;;5.45;;
68718;SDS011;55696;52.138;5.444;2023-07-13T06:15:26;19.58;;;5.95;;
68718;SDS011;55696;52.138;5.444;2023-07-13T06:17:54;18.48;;;5.60;;
68718;SDS011;55696;52.138;5.444;2023-07-13T06:20:21;21.67;;;6.55;;
68718;SDS011;55696;52.138;5.444;2023-07-13T06:22:47;18.80;;;6.00;;
68718;SDS011;55696;52.138;5.444;2023-07-13T06:25:14;20.80;;;7.43;;
68718;SDS011;55696;52.138;5.444;2023-07-13T06:27:41;16.10;;;5.93;;
68718;SDS011;55696;52.138;5.444;2023-07-13T06:30:08;22.13;;;6.20;;
68718;SDS011;55696;52.138;5.444;2023-07-13T06:32:36;20.95;;;7.13;;
68718;SDS011;55696;52.138;5.444;2023-07-13T06:35:07;17.90;;;6.30;;
68718;SDS011;55696;52.138;5.444;2023-07-13T06:37:34;21.75;;;7.57;;
68718;SDS011;55696;52.138;5.444;2023-07-13T06:40:01;18.25;;;7.03;;
68718;SDS011;55696;52.138;5.444;2023-07-13T06:42:27;15.18;;;6.32;;
68718;SDS011;55696;52.138;5.444;2023-07-13T06:44:54;18.27;;;6.20;;
68718;SDS011;55696;52.138;5.444;2023-07-13T06:47:21;21.57;;;6.90;;
68718;SDS011;55696;52.138;5.444;2023-07-13T06:49:48;16.83;;;6.88;;
68718;SDS011;55696;52.138;5.444;2023-07-13T06:52:15;18.70;;;6.80;;
68718;SDS011;55696;52.138;5.444;2023-07-13T06:54:42;18.08;;;7.07;;
68718;SDS011;55696;52.138;5.444;2023-07-13T06:57:09;14.10;;;6.90;;
68718;SDS011;55696;52.138;5.444;2023-07-13T06:59:36;19.13;;;6.73;;
68718;SDS011;55696;52.138;5.444;2023-07-13T07:02:03;19.05;;;6.20;;
68718;SDS011;55696;52.138;5.444;2023-07-13T07:04:31;21.75;;;7.30;;
68718;SDS011;55696;52.138;5.444;2023-07-13T07:06:58;18.73;;;6.57;;
68718;SDS011;55696;52.138;5.444;2023-07-13T07:09:25;24.23;;;7.28;;
68718;SDS011;55696;52.138;5.444;2023-07-13T07:11:52;18.17;;;6.40;;
68718;SDS011;55696;52.138;5.444;2023-07-13T07:14:29;14.85;;;5.90;;
68718;SDS011;55696;52.138;5.444;2023-07-13T07:16:56;17.13;;;7.18;;
68718;SDS011;55696;52.138;5.444;2023-07-13T07:19:25;17.38;;;7.50;;
68718;SDS011;55696;52.138;5.444;2023-07-13T07:21:52;21.00;;;7.60;;
68718;SDS011;55696;52.138;5.444;2023-07-13T07:24:19;18.60;;;7.90;;
68718;SDS011;55696;52.138;5.444;2023-07-13T07:26:45;17.20;;;7.22;;
68718;SDS011;55696;52.138;5.444;2023-07-13T07:29:15;18.25;;;7.05;;
68718;SDS011;55696;52.138;5.444;2023-07-13T07:31:45;21.38;;;7.82;;
68718;SDS011;55696;52.138;5.444;2023-07-13T07:34:15;19.55;;;6.95;;
68718;SDS011;55696;52.138;5.444;2023-07-13T07:36:42;20.23;;;7.90;;
68718;SDS011;55696;52.138;5.444;2023-07-13T07:39:11;15.95;;;6.78;;
68718;SDS011;55696;52.138;5.444;2023-07-13T07:41:38;23.27;;;9.07;;
68718;SDS011;55696;52.138;5.444;2023-07-13T07:44:08;22.98;;;7.50;;
68718;SDS011;55696;52.138;5.444;2023-07-13T07:46:36;18.40;;;6.80;;
68718;SDS011;55696;52.138;5.444;2023-07-13T07:49:03;19.77;;;7.73;;
68718;SDS011;55696;52.138;5.444;2023-07-13T07:51:30;17.85;;;7.30;;
68718;SDS011;55696;52.138;5.444;2023-07-13T07:53:57;18.67;;;7.97;;
68718;SDS011;55696;52.138;5.444;2023-07-13T07:56:24;17.27;;;7.25;;
68718;SDS011;55696;52.138;5.444;2023-07-13T07:58:54;17.77;;;8.00;;
68718;SDS011;55696;52.138;5.444;2023-07-13T08:01:24;24.17;;;7.70;;
68718;SDS011;55696;52.138;5.444;2023-07-13T08:03:54;13.73;;;6.70;;
68718;SDS011;55696;52.138;5.444;2023-07-13T08:06:24;22.88;;;8.43;;
68718;SDS011;55696;52.138;5.444;2023-07-13T08:09:10;16.77;;;7.63;;
68718;SDS011;55696;52.138;5.444;2023-07-13T08:11:38;16.85;;;6.80;;
68718;SDS011;55696;52.138;5.444;2023-07-13T08:14:08;13.80;;;6.80;;
68718;SDS011;55696;52.138;5.444;2023-07-13T08:16:35;22.23;;;7.55;;
68718;SDS011;55696;52.138;5.444;2023-07-13T08:19:02;17.98;;;6.85;;
68718;SDS011;55696;52.138;5.444;2023-07-13T08:21:30;16.20;;;6.60;;
68718;SDS011;55696;52.138;5.444;2023-07-13T08:23:57;23.42;;;6.57;;
68718;SDS011;55696;52.138;5.444;2023-07-13T08:26:24;17.87;;;6.20;;
68718;SDS011;55696;52.138;5.444;2023-07-13T08:28:51;13.40;;;5.55;;
68718;SDS011;55696;52.138;5.444;2023-07-13T08:31:18;14.00;;;5.90;;
68718;SDS011;55696;52.138;5.444;2023-07-13T08:33:45;13.45;;;5.18;;
68718;SDS011;55696;52.138;5.444;2023-07-13T08:36:11;16.50;;;5.55;;
68718;SDS011;55696;52.138;5.444;2023-07-13T08:38:38;15.10;;;4.57;;
68718;SDS011;55696;52.138;5.444;2023-07-13T08:41:13;18.08;;;5.03;;
68718;SDS011;55696;52.138;5.444;2023-07-13T08:43:49;13.73;;;5.30;;
68718;SDS011;55696;52.138;5.444;2023-07-13T08:46:28;11.30;;;4.15;;
68718;SDS011;55696;52.138;5.444;2023-07-13T08:49:09;11.45;;;3.78;;
68718;SDS011;55696;52.138;5.444;2023-07-13T08:52:00;7.50;;;3.33;;
68718;SDS011;55696;52.138;5.444;2023-07-13T08:54:35;7.35;;;2.67;;
68718;SDS011;55696;52.138;5.444;2023-07-13T08:57:13;10.45;;;2.72;;
68718;SDS011;55696;52.138;5.444;2023-07-13T08:59:43;6.80;;;2.10;;
68718;SDS011;55696;52.138;5.444;2023-07-13T09:04:56;5.57;;;2.40;;
68718;SDS011;55696;52.138;5.444;2023-07-13T09:07:39;4.97;;;2.13;;
68718;SDS011;55696;52.138;5.444;2023-07-13T09:10:29;4.82;;;2.10;;
68718;SDS011;55696;52.138;5.444;2023-07-13T09:15:44;5.55;;;2.30;;
68718;SDS011;55696;52.138;5.444;2023-07-13T09:21:00;8.93;;;2.53;;
68718;SDS011;55696;52.138;5.444;2023-07-13T09:23:36;11.88;;;3.33;;
68718;SDS011;55696;52.138;5.444;2023-07-13T09:28:39;9.07;;;3.00;;
68718;SDS011;55696;52.138;5.444;2023-07-13T09:31:20;9.10;;;3.03;;
68718;SDS011;55696;52.138;5.444;2023-07-13T09:33:52;11.27;;;3.25;;
68718;SDS011;55696;52.138;5.444;2023-07-13T09:41:39;12.52;;;2.65;;
68718;SDS011;55696;52.138;5.444;2023-07-13T09:44:34;8.10;;;2.50;;
68718;SDS011;55696;52.138;5.444;2023-07-13T09:47:18;7.63;;;2.58;;
68718;SDS011;55696;52.138;5.444;2023-07-13T09:50:00;6.32;;;2.35;;
68718;SDS011;55696;52.138;5.444;2023-07-13T09:52:40;5.07;;;2.03;;
68718;SDS011;55696;52.138;5.444;2023-07-13T09:58:06;11.93;;;3.57;;
68718;SDS011;55696;52.138;5.444;2023-07-13T10:00:43;12.30;;;4.35;;
68718;SDS011;55696;52.138;5.444;2023-07-13T10:03:20;7.57;;;2.80;;
68718;SDS011;55696;52.138;5.444;2023-07-13T10:06:00;7.18;;;2.22;;
68718;SDS011;55696;52.138;5.444;2023-07-13T10:08:37;8.10;;;2.28;;
68718;SDS011;55696;52.138;5.444;2023-07-13T10:11:12;8.43;;;2.37;;
68718;SDS011;55696;52.138;5.444;2023-07-13T10:13:53;6.32;;;2.40;;
68718;SDS011;55696;52.138;5.444;2023-07-13T10:16:30;7.60;;;3.10;;
68718;SDS011;55696;52.138;5.444;2023-07-13T10:19:05;5.97;;;2.75;;
68718;SDS011;55696;52.138;5.444;2023-07-13T10:21:50;6.88;;;2.90;;
68718;SDS011;55696;52.138;5.444;2023-07-13T10:24:22;9.37;;;2.70;;
68718;SDS011;55696;52.138;5.444;2023-07-13T10:30:20;8.43;;;3.30;;
68718;SDS011;55696;52.138;5.444;2023-07-13T10:32:46;10.48;;;2.80;;
68718;SDS011;55696;52.138;5.444;2023-07-13T10:35:15;8.18;;;2.67;;
68718;SDS011;55696;52.138;5.444;2023-07-13T10:40:27;7.75;;;2.40;;
68718;SDS011;55696;52.138;5.444;2023-07-13T10:42:58;5.65;;;2.53;;
68718;SDS011;55696;52.138;5.444;2023-07-13T10:45:32;5.90;;;2.45;;
68718;SDS011;55696;52.138;5.444;2023-07-13T10:48:02;10.32;;;2.90;;
68718;SDS011;55696;52.138;5.444;2023-07-13T10:50:31;6.90;;;2.93;;
68718;SDS011;55696;52.138;5.444;2023-07-13T10:53:03;5.50;;;2.97;;
68718;SDS011;55696;52.138;5.444;2023-07-13T10:58:19;7.22;;;3.00;;
68718;SDS011;55696;52.138;5.444;2023-07-13T11:03:21;6.17;;;2.50;;
68718;SDS011;55696;52.138;5.444;2023-07-13T11:05:50;6.20;;;2.20;;
68718;SDS011;55696;52.138;5.444;2023-07-13T11:08:33;7.05;;;2.38;;
68718;SDS011;55696;52.138;5.444;2023-07-13T11:11:03;4.07;;;2.00;;
68718;SDS011;55696;52.138;5.444;2023-07-13T11:18:44;4.82;;;2.00;;
68718;SDS011;55696;52.138;5.444;2023-07-13T11:21:18;4.68;;;2.25;;
68718;SDS011;55696;52.138;5.444;2023-07-13T11:24:33;6.82;;;2.30;;
68718;SDS011;55696;52.138;5.444;2023-07-13T11:26:55;6.40;;;2.20;;
68718;SDS011;55696;52.138;5.444;2023-07-13T11:32:10;9.70;;;2.40;;
68718;SDS011;55696;52.138;5.444;2023-07-13T11:34:53;8.45;;;2.75;;
68718;SDS011;55696;52.138;5.444;2023-07-13T11:37:21;4.28;;;2.03;;
68718;SDS011;55696;52.138;5.444;2023-07-13T11:39:50;7.60;;;2.78;;
68718;SDS011;55696;52.138;5.444;2023-07-13T11:42:18;8.37;;;2.47;;
68718;SDS011;55696;52.138;5.444;2023-07-13T11:44:48;6.50;;;2.33;;
68718;SDS011;55696;52.138;5.444;2023-07-13T11:47:34;7.43;;;2.70;;
68718;SDS011;55696;52.138;5.444;2023-07-13T11:50:16;5.03;;;2.28;;
68718;SDS011;55696;52.138;5.444;2023-07-13T11:52:48;7.65;;;2.60;;
68718;SDS011;55696;52.138;5.444;2023-07-13T11:55:17;8.23;;;2.87;;
68718;SDS011;55696;52.138;5.444;2023-07-13T11:57:47;6.22;;;2.63;;
68718;SDS011;55696;52.138;5.444;2023-07-13T12:00:18;6.20;;;2.60;;
68718;SDS011;55696;52.138;5.444;2023-07-13T12:02:52;5.90;;;2.42;;
68718;SDS011;55696;52.138;5.444;2023-07-13T12:05:22;7.80;;;2.38;;
68718;SDS011;55696;52.138;5.444;2023-07-13T12:07:49;15.33;;;2.53;;
68718;SDS011;55696;52.138;5.444;2023-07-13T12:12:51;7.22;;;2.70;;
68718;SDS011;55696;52.138;5.444;2023-07-13T12:15:21;10.65;;;2.88;;
68718;SDS011;55696;52.138;5.444;2023-07-13T12:17:49;6.40;;;2.88;;
68718;SDS011;55696;52.138;5.444;2023-07-13T12:20:21;6.10;;;2.70;;
68718;SDS011;55696;52.138;5.444;2023-07-13T12:22:51;10.63;;;3.05;;
68718;SDS011;55696;52.138;5.444;2023-07-13T12:25:19;8.52;;;2.75;;
68718;SDS011;55696;52.138;5.444;2023-07-13T12:27:48;8.18;;;3.20;;
68718;SDS011;55696;52.138;5.444;2023-07-13T12:30:29;8.95;;;3.00;;
68718;SDS011;55696;52.138;5.444;2023-07-13T12:33:06;7.33;;;2.90;;
68718;SDS011;55696;52.138;5.444;2023-07-13T12:35:39;8.57;;;3.13;;
68718;SDS011;55696;52.138;5.444;2023-07-13T12:38:10;10.57;;;3.38;;
68718;SDS011;55696;52.138;5.444;2023-07-13T12:40:38;9.30;;;2.88;;
68718;SDS011;55696;52.138;5.444;2023-07-13T12:43:12;10.38;;;3.30;;
68718;SDS011;55696;52.138;5.444;2023-07-13T12:45:56;12.07;;;3.13;;
68718;SDS011;55696;52.138;5.444;2023-07-13T12:48:29;11.13;;;3.40;;
68718;SDS011;55696;52.138;5.444;2023-07-13T12:51:14;9.20;;;3.65;;
68718;SDS011;55696;52.138;5.444;2023-07-13T12:53:43;9.50;;;2.40;;
68718;SDS011;55696;52.138;5.444;2023-07-13T12:56:18;5.85;;;2.47;;
68718;SDS011;55696;52.138;5.444;2023-07-13T12:58:54;8.73;;;2.40;;
68718;SDS011;55696;52.138;5.444;2023-07-13T13:01:27;7.82;;;2.47;;
68718;SDS011;55696;52.138;5.444;2023-07-13T13:03:56;7.47;;;2.70;;
68718;SDS011;55696;52.138;5.444;2023-07-13T13:06:24;6.28;;;2.50;;
68718;SDS011;55696;52.138;5.444;2023-07-13T13:08:54;6.55;;;2.17;;
68718;SDS011;55696;52.138;5.444;2023-07-13T13:11:26;5.33;;;2.30;;
68718;SDS011;55696;52.138;5.444;2023-07-13T13:13:54;4.75;;;1.92;;
68718;SDS011;55696;52.138;5.444;2023-07-13T13:18:49;10.10;;;2.83;;
68718;SDS011;55696;52.138;5.444;2023-07-13T13:21:18;7.95;;;2.13;;
68718;SDS011;55696;52.138;5.444;2023-07-13T13:23:45;4.53;;;2.27;;
68718;SDS011;55696;52.138;5.444;2023-07-13T13:26:15;6.55;;;2.15;;
68718;SDS011;55696;52.138;5.444;2023-07-13T13:28:42;9.93;;;2.42;;
68718;SDS011;55696;52.138;5.444;2023-07-13T13:31:11;5.10;;;2.10;;
68718;SDS011;55696;52.138;5.444;2023-07-13T13:33:39;8.18;;;2.30;;
68718;SDS011;55696;52.138;5.444;2023-07-13T13:36:15;4.97;;;2.07;;
68718;SDS011;55696;52.138;5.444;2023-07-13T13:38:45;4.57;;;2.22;;
68718;SDS011;55696;52.138;5.444;2023-07-13T13:41:13;7.50;;;2.20;;
68718;SDS011;55696;52.138;5.444;2023-07-13T13:43:41;6.90;;;2.45;;
68718;SDS011;55696;52.138;5.444;2023-07-13T13:46:13;7.30;;;2.75;;
68718;SDS011;55696;52.138;5.444;2023-07-13T13:48:42;5.07;;;2.20;;
68718;SDS011;55696;52.138;5.444;2023-07-13T13:51:15;5.47;;;2.70;;
68718;SDS011;55696;52.138;5.444;2023-07-13T13:53:46;8.13;;;2.38;;
68718;SDS011;55696;52.138;5.444;2023-07-13T13:56:14;6.00;;;2.20;;
68718;SDS011;55696;52.138;5.444;2023-07-13T13:58:42;4.78;;;2.40;;
68718;SDS011;55696;52.138;5.444;2023-07-13T14:01:12;5.57;;;2.30;;
68718;SDS011;55696;52.138;5.444;2023-07-13T14:03:51;8.35;;;2.50;;
68718;SDS011;55696;52.138;5.444;2023-07-13T14:06:18;7.38;;;3.08;;
68718;SDS011;55696;52.138;5.444;2023-07-13T14:08:45;7.38;;;2.00;;
68718;SDS011;55696;52.138;5.444;2023-07-13T14:11:15;7.60;;;2.40;;
68718;SDS011;55696;52.138;5.444;2023-07-13T14:14:05;6.33;;;2.40;;
68718;SDS011;55696;52.138;5.444;2023-07-13T14:16:31;4.45;;;2.47;;
68718;SDS011;55696;52.138;5.444;2023-07-13T14:19:00;4.47;;;2.30;;
68718;SDS011;55696;52.138;5.444;2023-07-13T14:21:28;9.32;;;3.13;;
68718;SDS011;55696;52.138;5.444;2023-07-13T14:23:56;7.13;;;2.53;;
68718;SDS011;55696;52.138;5.444;2023-07-13T14:26:23;8.23;;;2.37;;
68718;SDS011;55696;52.138;5.444;2023-07-13T14:28:53;8.48;;;2.28;;
68718;SDS011;55696;52.138;5.444;2023-07-13T14:31:22;6.35;;;2.50;;
68718;SDS011;55696;52.138;5.444;2023-07-13T14:33:56;6.05;;;2.40;;
68718;SDS011;55696;52.138;5.444;2023-07-13T14:36:31;6.78;;;2.33;;
68718;SDS011;55696;52.138;5.444;2023-07-13T14:39:00;6.77;;;2.40;;
68718;SDS011;55696;52.138;5.444;2023-07-13T14:41:37;6.43;;;2.97;;
68718;SDS011;55696;52.138;5.444;2023-07-13T14:44:10;5.60;;;2.22;;
68718;SDS011;55696;52.138;5.444;2023-07-13T14:46:41;6.57;;;2.45;;
68718;SDS011;55696;52.138;5.444;2023-07-13T14:51:58;6.27;;;2.10;;
68718;SDS011;55696;52.138;5.444;2023-07-13T14:54:27;6.40;;;2.40;;
68718;SDS011;55696;52.138;5.444;2023-07-13T14:56:57;3.80;;;1.98;;
68718;SDS011;55696;52.138;5.444;2023-07-13T14:59:23;6.00;;;2.28;;
68718;SDS011;55696;52.138;5.444;2023-07-13T15:01:50;5.65;;;1.90;;
68718;SDS011;55696;52.138;5.444;2023-07-13T15:04:17;7.03;;;2.23;;
68718;SDS011;55696;52.138;5.444;2023-07-13T15:06:58;7.90;;;2.33;;
68718;SDS011;55696;52.138;5.444;2023-07-13T15:09:28;5.72;;;2.30;;
68718;SDS011;55696;52.138;5.444;2023-07-13T15:11:58;6.53;;;1.92;;
68718;SDS011;55696;52.138;5.444;2023-07-13T15:14:25;8.02;;;2.35;;
68718;SDS011;55696;52.138;5.444;2023-07-13T15:16:55;10.60;;;2.60;;
68718;SDS011;55696;52.138;5.444;2023-07-13T15:19:23;7.85;;;2.40;;
68718;SDS011;55696;52.138;5.444;2023-07-13T15:21:51;8.88;;;2.40;;
68718;SDS011;55696;52.138;5.444;2023-07-13T15:24:20;6.68;;;2.08;;
68718;SDS011;55696;52.138;5.444;2023-07-13T15:26:48;4.30;;;2.22;;
68718;SDS011;55696;52.138;5.444;2023-07-13T15:29:15;11.17;;;2.27;;
68718;SDS011;55696;52.138;5.444;2023-07-13T15:31:43;5.63;;;2.20;;
68718;SDS011;55696;52.138;5.444;2023-07-13T15:34:11;7.72;;;2.08;;
68718;SDS011;55696;52.138;5.444;2023-07-13T15:36:40;5.85;;;1.90;;
68718;SDS011;55696;52.138;5.444;2023-07-13T15:39:08;4.90;;;1.67;;
68718;SDS011;55696;52.138;5.444;2023-07-13T15:41:41;5.70;;;1.97;;
68718;SDS011;55696;52.138;5.444;2023-07-13T15:44:33;5.43;;;1.83;;
68718;SDS011;55696;52.138;5.444;2023-07-13T15:47:00;6.88;;;2.20;;
68718;SDS011;55696;52.138;5.444;2023-07-13T15:49:27;5.53;;;2.00;;